sensor_id;sensor_type;location;lat;lon;timestamp;P1;durP1;ratioP1;P2;durP2;ratioP2
37655;SDS011;23498;50.958;3.124;2023-04-24T00:00:16;16.80;;;11.32;;
37655;SDS011;23498;50.958;3.124;2023-04-24T00:02:42;15.70;;;11.75;;
37655;SDS011;23498;50.958;3.124;2023-04-24T00:05:13;16.17;;;10.95;;
37655;SDS011;23498;50.958;3.124;2023-04-24T00:07:43;14.35;;;9.27;;
37655;SDS011;23498;50.958;3.124;2023-04-24T00:10:10;15.65;;;9.68;;
37655;SDS011;23498;50.958;3.124;2023-04-24T00:12:36;13.20;;;8.77;;
37655;SDS011;23498;50.958;3.124;2023-04-24T00:15:02;14.20;;;9.20;;
37655;SDS011;23498;50.958;3.124;2023-04-24T00:17:28;13.50;;;9.10;;
37655;SDS011;23498;50.958;3.124;2023-04-24T00:19:55;13.23;;;9.10;;
37655;SDS011;23498;50.958;3.124;2023-04-24T00:22:26;15.00;;;9.40;;
37655;SDS011;23498;50.958;3.124;2023-04-24T00:24:53;12.80;;;8.88;;
37655;SDS011;23498;50.958;3.124;2023-04-24T00:27:19;12.48;;;9.23;;
37655;SDS011;23498;50.958;3.124;2023-04-24T00:29:45;15.73;;;9.43;;
37655;SDS011;23498;50.958;3.124;2023-04-24T00:32:11;15.60;;;9.63;;
37655;SDS011;23498;50.958;3.124;2023-04-24T00:34:37;13.35;;;8.63;;
37655;SDS011;23498;50.958;3.124;2023-04-24T00:37:03;15.68;;;10.13;;
37655;SDS011;23498;50.958;3.124;2023-04-24T00:39:30;16.30;;;11.20;;
37655;SDS011;23498;50.958;3.124;2023-04-24T00:41:56;16.30;;;11.32;;
37655;SDS011;23498;50.958;3.124;2023-04-24T00:44:22;18.30;;;12.52;;
37655;SDS011;23498;50.958;3.124;2023-04-24T00:46:49;21.02;;;13.65;;
37655;SDS011;23498;50.958;3.124;2023-04-24T00:49:19;24.55;;;15.27;;
37655;SDS011;23498;50.958;3.124;2023-04-24T00:51:45;26.20;;;16.75;;
37655;SDS011;23498;50.958;3.124;2023-04-24T00:54:12;24.73;;;15.77;;
37655;SDS011;23498;50.958;3.124;2023-04-24T00:56:39;26.52;;;17.10;;
37655;SDS011;23498;50.958;3.124;2023-04-24T00:59:05;25.35;;;16.42;;
37655;SDS011;23498;50.958;3.124;2023-04-24T01:01:32;28.83;;;17.73;;
37655;SDS011;23498;50.958;3.124;2023-04-24T01:03:58;27.30;;;16.90;;
37655;SDS011;23498;50.958;3.124;2023-04-24T01:06:26;30.00;;;18.80;;
37655;SDS011;23498;50.958;3.124;2023-04-24T01:08:53;29.73;;;19.23;;
37655;SDS011;23498;50.958;3.124;2023-04-24T01:11:20;31.33;;;19.15;;
37655;SDS011;23498;50.958;3.124;2023-04-24T01:13:47;29.50;;;18.55;;
37655;SDS011;23498;50.958;3.124;2023-04-24T01:16:14;31.65;;;19.38;;
37655;SDS011;23498;50.958;3.124;2023-04-24T01:18:42;27.30;;;18.95;;
37655;SDS011;23498;50.958;3.124;2023-04-24T01:21:08;29.75;;;18.63;;
37655;SDS011;23498;50.958;3.124;2023-04-24T01:23:35;28.25;;;18.15;;
37655;SDS011;23498;50.958;3.124;2023-04-24T01:26:01;33.28;;;19.63;;
37655;SDS011;23498;50.958;3.124;2023-04-24T01:28:27;28.65;;;18.60;;
37655;SDS011;23498;50.958;3.124;2023-04-24T01:30:53;30.90;;;18.80;;
37655;SDS011;23498;50.958;3.124;2023-04-24T01:33:20;29.50;;;19.65;;
37655;SDS011;23498;50.958;3.124;2023-04-24T01:35:46;32.22;;;20.60;;
37655;SDS011;23498;50.958;3.124;2023-04-24T01:38:12;28.02;;;15.65;;
37655;SDS011;23498;50.958;3.124;2023-04-24T01:40:39;32.85;;;21.38;;
37655;SDS011;23498;50.958;3.124;2023-04-24T01:43:05;34.95;;;20.80;;
37655;SDS011;23498;50.958;3.124;2023-04-24T01:45:31;29.98;;;18.00;;
37655;SDS011;23498;50.958;3.124;2023-04-24T01:47:57;29.50;;;17.25;;
37655;SDS011;23498;50.958;3.124;2023-04-24T01:50:23;26.85;;;15.98;;
37655;SDS011;23498;50.958;3.124;2023-04-24T01:52:49;30.92;;;16.52;;
37655;SDS011;23498;50.958;3.124;2023-04-24T01:55:16;32.28;;;16.15;;
37655;SDS011;23498;50.958;3.124;2023-04-24T01:57:42;27.92;;;16.27;;
37655;SDS011;23498;50.958;3.124;2023-04-24T02:00:08;36.45;;;17.35;;
37655;SDS011;23498;50.958;3.124;2023-04-24T02:02:36;30.83;;;16.05;;
37655;SDS011;23498;50.958;3.124;2023-04-24T02:05:02;28.50;;;15.27;;
37655;SDS011;23498;50.958;3.124;2023-04-24T02:07:28;27.42;;;12.93;;
37655;SDS011;23498;50.958;3.124;2023-04-24T02:09:54;26.10;;;14.65;;
37655;SDS011;23498;50.958;3.124;2023-04-24T02:12:20;21.08;;;10.45;;
37655;SDS011;23498;50.958;3.124;2023-04-24T02:14:46;12.02;;;6.13;;
37655;SDS011;23498;50.958;3.124;2023-04-24T02:17:12;12.63;;;7.80;;
37655;SDS011;23498;50.958;3.124;2023-04-24T02:19:40;13.95;;;6.60;;
37655;SDS011;23498;50.958;3.124;2023-04-24T02:22:06;12.75;;;7.63;;
37655;SDS011;23498;50.958;3.124;2023-04-24T02:24:32;12.15;;;6.40;;
37655;SDS011;23498;50.958;3.124;2023-04-24T02:26:58;13.40;;;7.93;;
37655;SDS011;23498;50.958;3.124;2023-04-24T02:29:25;13.38;;;8.10;;
37655;SDS011;23498;50.958;3.124;2023-04-24T02:31:51;15.60;;;7.93;;
37655;SDS011;23498;50.958;3.124;2023-04-24T02:34:17;16.42;;;8.00;;
37655;SDS011;23498;50.958;3.124;2023-04-24T02:36:43;15.10;;;9.05;;
37655;SDS011;23498;50.958;3.124;2023-04-24T02:39:09;15.10;;;8.20;;
37655;SDS011;23498;50.958;3.124;2023-04-24T02:41:35;15.55;;;9.65;;
37655;SDS011;23498;50.958;3.124;2023-04-24T02:44:01;19.35;;;11.75;;
37655;SDS011;23498;50.958;3.124;2023-04-24T02:46:28;23.73;;;12.77;;
37655;SDS011;23498;50.958;3.124;2023-04-24T02:48:54;26.15;;;13.60;;
37655;SDS011;23498;50.958;3.124;2023-04-24T02:51:20;26.63;;;14.30;;
37655;SDS011;23498;50.958;3.124;2023-04-24T02:53:46;31.52;;;16.13;;
37655;SDS011;23498;50.958;3.124;2023-04-24T02:56:12;34.28;;;17.00;;
37655;SDS011;23498;50.958;3.124;2023-04-24T02:58:38;40.00;;;19.90;;
37655;SDS011;23498;50.958;3.124;2023-04-24T03:01:04;26.75;;;14.95;;
37655;SDS011;23498;50.958;3.124;2023-04-24T03:03:30;38.90;;;19.80;;
37655;SDS011;23498;50.958;3.124;2023-04-24T03:05:56;37.33;;;19.80;;
37655;SDS011;23498;50.958;3.124;2023-04-24T03:08:23;36.60;;;19.80;;
37655;SDS011;23498;50.958;3.124;2023-04-24T03:10:49;33.90;;;18.77;;
37655;SDS011;23498;50.958;3.124;2023-04-24T03:13:15;36.65;;;20.55;;
37655;SDS011;23498;50.958;3.124;2023-04-24T03:15:42;40.28;;;21.13;;
37655;SDS011;23498;50.958;3.124;2023-04-24T03:18:08;37.00;;;18.55;;
37655;SDS011;23498;50.958;3.124;2023-04-24T03:20:34;37.10;;;19.17;;
37655;SDS011;23498;50.958;3.124;2023-04-24T03:23:01;33.47;;;19.30;;
37655;SDS011;23498;50.958;3.124;2023-04-24T03:25:28;38.00;;;18.77;;
37655;SDS011;23498;50.958;3.124;2023-04-24T03:27:54;39.53;;;20.35;;
37655;SDS011;23498;50.958;3.124;2023-04-24T03:30:20;37.42;;;18.52;;
37655;SDS011;23498;50.958;3.124;2023-04-24T03:32:46;38.08;;;17.88;;
37655;SDS011;23498;50.958;3.124;2023-04-24T03:35:12;40.50;;;20.63;;
37655;SDS011;23498;50.958;3.124;2023-04-24T03:37:38;32.22;;;15.50;;
37655;SDS011;23498;50.958;3.124;2023-04-24T03:40:04;32.97;;;17.50;;
37655;SDS011;23498;50.958;3.124;2023-04-24T03:42:32;34.58;;;18.23;;
37655;SDS011;23498;50.958;3.124;2023-04-24T03:44:58;31.75;;;17.95;;
37655;SDS011;23498;50.958;3.124;2023-04-24T03:47:24;30.33;;;17.38;;
37655;SDS011;23498;50.958;3.124;2023-04-24T03:49:50;27.20;;;16.38;;
37655;SDS011;23498;50.958;3.124;2023-04-24T03:52:16;28.30;;;16.27;;
37655;SDS011;23498;50.958;3.124;2023-04-24T03:54:42;27.13;;;16.23;;
37655;SDS011;23498;50.958;3.124;2023-04-24T03:57:08;29.27;;;16.23;;
37655;SDS011;23498;50.958;3.124;2023-04-24T03:59:34;31.10;;;16.63;;
37655;SDS011;23498;50.958;3.124;2023-04-24T04:02:00;36.05;;;17.23;;
37655;SDS011;23498;50.958;3.124;2023-04-24T04:04:27;29.25;;;16.23;;
37655;SDS011;23498;50.958;3.124;2023-04-24T04:06:53;32.38;;;16.92;;
37655;SDS011;23498;50.958;3.124;2023-04-24T04:09:19;31.58;;;14.98;;
37655;SDS011;23498;50.958;3.124;2023-04-24T04:11:45;29.23;;;16.75;;
37655;SDS011;23498;50.958;3.124;2023-04-24T04:14:11;28.70;;;16.17;;
37655;SDS011;23498;50.958;3.124;2023-04-24T04:16:37;29.42;;;15.82;;
37655;SDS011;23498;50.958;3.124;2023-04-24T04:19:03;27.80;;;16.17;;
37655;SDS011;23498;50.958;3.124;2023-04-24T04:21:30;32.42;;;15.85;;
37655;SDS011;23498;50.958;3.124;2023-04-24T04:23:57;37.53;;;17.02;;
37655;SDS011;23498;50.958;3.124;2023-04-24T04:26:23;35.65;;;17.70;;
37655;SDS011;23498;50.958;3.124;2023-04-24T04:28:50;36.03;;;16.52;;
37655;SDS011;23498;50.958;3.124;2023-04-24T04:31:17;29.77;;;17.52;;
37655;SDS011;23498;50.958;3.124;2023-04-24T04:33:43;34.78;;;19.80;;
37655;SDS011;23498;50.958;3.124;2023-04-24T04:36:09;29.30;;;15.90;;
37655;SDS011;23498;50.958;3.124;2023-04-24T04:38:35;35.42;;;19.42;;
37655;SDS011;23498;50.958;3.124;2023-04-24T04:41:02;40.83;;;19.00;;
37655;SDS011;23498;50.958;3.124;2023-04-24T04:43:28;34.92;;;19.90;;
37655;SDS011;23498;50.958;3.124;2023-04-24T04:45:54;35.60;;;18.58;;
37655;SDS011;23498;50.958;3.124;2023-04-24T04:48:21;38.13;;;18.90;;
37655;SDS011;23498;50.958;3.124;2023-04-24T04:50:47;36.97;;;18.80;;
37655;SDS011;23498;50.958;3.124;2023-04-24T04:53:13;34.90;;;18.77;;
37655;SDS011;23498;50.958;3.124;2023-04-24T04:55:39;33.53;;;18.58;;
37655;SDS011;23498;50.958;3.124;2023-04-24T04:58:05;37.75;;;19.23;;
37655;SDS011;23498;50.958;3.124;2023-04-24T05:00:31;36.47;;;19.42;;
37655;SDS011;23498;50.958;3.124;2023-04-24T05:03:01;36.38;;;19.35;;
37655;SDS011;23498;50.958;3.124;2023-04-24T05:05:28;38.55;;;19.15;;
37655;SDS011;23498;50.958;3.124;2023-04-24T05:07:54;39.03;;;18.60;;
37655;SDS011;23498;50.958;3.124;2023-04-24T05:10:20;34.53;;;19.33;;
37655;SDS011;23498;50.958;3.124;2023-04-24T05:12:46;40.25;;;19.25;;
37655;SDS011;23498;50.958;3.124;2023-04-24T05:15:12;35.25;;;18.02;;
37655;SDS011;23498;50.958;3.124;2023-04-24T05:17:38;39.00;;;19.52;;
37655;SDS011;23498;50.958;3.124;2023-04-24T05:20:05;40.58;;;19.85;;
37655;SDS011;23498;50.958;3.124;2023-04-24T05:22:34;38.47;;;19.48;;
37655;SDS011;23498;50.958;3.124;2023-04-24T05:25:01;34.22;;;19.08;;
37655;SDS011;23498;50.958;3.124;2023-04-24T05:27:27;35.72;;;19.10;;
37655;SDS011;23498;50.958;3.124;2023-04-24T05:29:53;40.63;;;19.52;;
37655;SDS011;23498;50.958;3.124;2023-04-24T05:32:19;38.70;;;19.13;;
37655;SDS011;23498;50.958;3.124;2023-04-24T05:34:45;35.53;;;20.10;;
37655;SDS011;23498;50.958;3.124;2023-04-24T05:37:12;34.15;;;19.13;;
37655;SDS011;23498;50.958;3.124;2023-04-24T05:39:38;35.22;;;19.23;;
37655;SDS011;23498;50.958;3.124;2023-04-24T05:42:06;36.35;;;18.90;;
37655;SDS011;23498;50.958;3.124;2023-04-24T05:44:32;39.30;;;18.95;;
37655;SDS011;23498;50.958;3.124;2023-04-24T05:46:58;33.22;;;16.60;;
37655;SDS011;23498;50.958;3.124;2023-04-24T05:49:29;33.03;;;17.27;;
37655;SDS011;23498;50.958;3.124;2023-04-24T05:52:02;28.08;;;14.70;;
37655;SDS011;23498;50.958;3.124;2023-04-24T05:54:29;31.10;;;16.23;;
37655;SDS011;23498;50.958;3.124;2023-04-24T05:56:57;28.50;;;14.25;;
37655;SDS011;23498;50.958;3.124;2023-04-24T06:02:55;31.92;;;14.48;;
37655;SDS011;23498;50.958;3.124;2023-04-24T06:08:40;27.95;;;13.52;;
37655;SDS011;23498;50.958;3.124;2023-04-24T07:36:50;16.33;;;7.13;;
37655;SDS011;23498;50.958;3.124;2023-04-24T09:17:16;16.83;;;9.50;;
37655;SDS011;23498;50.958;3.124;2023-04-24T09:19:47;17.35;;;9.45;;
37655;SDS011;23498;50.958;3.124;2023-04-24T09:22:13;14.98;;;8.68;;
37655;SDS011;23498;50.958;3.124;2023-04-24T09:24:59;14.38;;;8.65;;
37655;SDS011;23498;50.958;3.124;2023-04-24T09:27:25;13.57;;;8.45;;
37655;SDS011;23498;50.958;3.124;2023-04-24T09:29:59;16.05;;;8.52;;
37655;SDS011;23498;50.958;3.124;2023-04-24T09:32:34;16.80;;;7.68;;
37655;SDS011;23498;50.958;3.124;2023-04-24T09:35:13;15.48;;;8.75;;
37655;SDS011;23498;50.958;3.124;2023-04-24T09:37:42;15.73;;;8.82;;
37655;SDS011;23498;50.958;3.124;2023-04-24T09:40:12;16.73;;;9.27;;
37655;SDS011;23498;50.958;3.124;2023-04-24T09:42:40;14.02;;;8.68;;
37655;SDS011;23498;50.958;3.124;2023-04-24T09:45:09;19.58;;;9.48;;
37655;SDS011;23498;50.958;3.124;2023-04-24T09:47:40;17.42;;;9.50;;
37655;SDS011;23498;50.958;3.124;2023-04-24T09:50:13;20.23;;;10.05;;
37655;SDS011;23498;50.958;3.124;2023-04-24T09:52:42;17.17;;;9.30;;
37655;SDS011;23498;50.958;3.124;2023-04-24T09:55:13;17.83;;;9.43;;
37655;SDS011;23498;50.958;3.124;2023-04-24T10:00:18;17.73;;;9.43;;
37655;SDS011;23498;50.958;3.124;2023-04-24T10:02:49;14.73;;;8.65;;
37655;SDS011;23498;50.958;3.124;2023-04-24T10:05:15;17.23;;;8.95;;
37655;SDS011;23498;50.958;3.124;2023-04-24T10:07:42;18.48;;;8.93;;
37655;SDS011;23498;50.958;3.124;2023-04-24T10:10:11;17.50;;;8.60;;
37655;SDS011;23498;50.958;3.124;2023-04-24T10:12:38;20.30;;;9.52;;
37655;SDS011;23498;50.958;3.124;2023-04-24T10:15:06;15.52;;;7.50;;
37655;SDS011;23498;50.958;3.124;2023-04-24T10:17:32;12.77;;;7.57;;
37655;SDS011;23498;50.958;3.124;2023-04-24T10:19:59;14.05;;;8.18;;
37655;SDS011;23498;50.958;3.124;2023-04-24T10:22:26;12.80;;;7.40;;
37655;SDS011;23498;50.958;3.124;2023-04-24T10:24:54;11.23;;;7.65;;
37655;SDS011;23498;50.958;3.124;2023-04-24T10:27:24;14.95;;;8.45;;
37655;SDS011;23498;50.958;3.124;2023-04-24T10:29:51;13.40;;;6.53;;
37655;SDS011;23498;50.958;3.124;2023-04-24T10:32:18;10.93;;;5.97;;
37655;SDS011;23498;50.958;3.124;2023-04-24T10:34:45;9.65;;;5.30;;
37655;SDS011;23498;50.958;3.124;2023-04-24T10:37:11;8.65;;;5.15;;
37655;SDS011;23498;50.958;3.124;2023-04-24T10:39:38;12.02;;;5.20;;
37655;SDS011;23498;50.958;3.124;2023-04-24T10:42:15;10.77;;;5.38;;
37655;SDS011;23498;50.958;3.124;2023-04-24T10:44:41;11.68;;;5.93;;
37655;SDS011;23498;50.958;3.124;2023-04-24T10:47:12;11.27;;;5.30;;
37655;SDS011;23498;50.958;3.124;2023-04-24T10:49:39;12.82;;;5.85;;
37655;SDS011;23498;50.958;3.124;2023-04-24T10:52:05;8.98;;;5.38;;
37655;SDS011;23498;50.958;3.124;2023-04-24T10:59:45;9.90;;;5.00;;
37655;SDS011;23498;50.958;3.124;2023-04-24T11:02:15;9.75;;;5.10;;
37655;SDS011;23498;50.958;3.124;2023-04-24T11:04:41;10.45;;;4.88;;
37655;SDS011;23498;50.958;3.124;2023-04-24T11:07:08;11.60;;;5.43;;
37655;SDS011;23498;50.958;3.124;2023-04-24T11:09:35;12.07;;;5.13;;
37655;SDS011;23498;50.958;3.124;2023-04-24T11:12:08;10.40;;;4.75;;
37655;SDS011;23498;50.958;3.124;2023-04-24T11:20:09;10.43;;;4.65;;
37655;SDS011;23498;50.958;3.124;2023-04-24T11:22:36;11.57;;;4.32;;
37655;SDS011;23498;50.958;3.124;2023-04-24T11:25:03;8.93;;;4.13;;
37655;SDS011;23498;50.958;3.124;2023-04-24T11:27:32;7.90;;;3.47;;
37655;SDS011;23498;50.958;3.124;2023-04-24T11:30:03;8.57;;;3.50;;
37655;SDS011;23498;50.958;3.124;2023-04-24T11:35:03;8.68;;;4.05;;
37655;SDS011;23498;50.958;3.124;2023-04-24T11:37:34;10.05;;;4.10;;
37655;SDS011;23498;50.958;3.124;2023-04-24T11:40:01;6.47;;;3.70;;
37655;SDS011;23498;50.958;3.124;2023-04-24T11:42:28;8.02;;;4.10;;
37655;SDS011;23498;50.958;3.124;2023-04-24T11:44:59;7.38;;;3.75;;
37655;SDS011;23498;50.958;3.124;2023-04-24T11:47:32;8.32;;;3.85;;
37655;SDS011;23498;50.958;3.124;2023-04-24T11:49:59;8.40;;;3.58;;
37655;SDS011;23498;50.958;3.124;2023-04-24T11:52:29;9.52;;;3.67;;
37655;SDS011;23498;50.958;3.124;2023-04-24T11:55:00;6.93;;;3.58;;
37655;SDS011;23498;50.958;3.124;2023-04-24T11:57:47;8.00;;;4.03;;
37655;SDS011;23498;50.958;3.124;2023-04-24T12:00:18;12.68;;;4.82;;
37655;SDS011;23498;50.958;3.124;2023-04-24T12:02:44;10.57;;;4.50;;
37655;SDS011;23498;50.958;3.124;2023-04-24T12:05:23;10.43;;;3.92;;
37655;SDS011;23498;50.958;3.124;2023-04-24T12:07:52;10.13;;;4.07;;
37655;SDS011;23498;50.958;3.124;2023-04-24T12:10:22;9.65;;;3.78;;
37655;SDS011;23498;50.958;3.124;2023-04-24T12:12:55;7.82;;;4.10;;
37655;SDS011;23498;50.958;3.124;2023-04-24T12:15:22;6.45;;;3.50;;
37655;SDS011;23498;50.958;3.124;2023-04-24T12:17:52;7.47;;;3.25;;
37655;SDS011;23498;50.958;3.124;2023-04-24T12:20:23;8.85;;;3.63;;
37655;SDS011;23498;50.958;3.124;2023-04-24T14:02:04;3.97;;;2.22;;
37655;SDS011;23498;50.958;3.124;2023-04-24T14:04:31;5.25;;;2.58;;
37655;SDS011;23498;50.958;3.124;2023-04-24T14:06:57;3.80;;;2.75;;
37655;SDS011;23498;50.958;3.124;2023-04-24T14:09:23;6.32;;;2.53;;
37655;SDS011;23498;50.958;3.124;2023-04-24T14:11:49;5.43;;;2.75;;
37655;SDS011;23498;50.958;3.124;2023-04-24T14:14:15;5.72;;;3.40;;
37655;SDS011;23498;50.958;3.124;2023-04-24T14:16:41;5.28;;;2.63;;
37655;SDS011;23498;50.958;3.124;2023-04-24T14:19:07;5.75;;;2.80;;
37655;SDS011;23498;50.958;3.124;2023-04-24T14:21:33;6.07;;;2.80;;
37655;SDS011;23498;50.958;3.124;2023-04-24T14:23:59;5.57;;;2.70;;
37655;SDS011;23498;50.958;3.124;2023-04-24T14:26:26;5.85;;;2.67;;
37655;SDS011;23498;50.958;3.124;2023-04-24T14:28:53;8.05;;;3.30;;
37655;SDS011;23498;50.958;3.124;2023-04-24T14:31:20;6.80;;;2.50;;
37655;SDS011;23498;50.958;3.124;2023-04-24T14:33:46;4.82;;;2.55;;
37655;SDS011;23498;50.958;3.124;2023-04-24T14:36:12;5.63;;;2.10;;
37655;SDS011;23498;50.958;3.124;2023-04-24T14:38:38;4.25;;;2.05;;
37655;SDS011;23498;50.958;3.124;2023-04-24T14:41:04;4.63;;;2.00;;
37655;SDS011;23498;50.958;3.124;2023-04-24T14:43:34;4.40;;;2.00;;
37655;SDS011;23498;50.958;3.124;2023-04-24T14:46:03;4.20;;;2.20;;
37655;SDS011;23498;50.958;3.124;2023-04-24T14:48:29;4.05;;;2.28;;
37655;SDS011;23498;50.958;3.124;2023-04-24T14:50:55;5.20;;;2.20;;
37655;SDS011;23498;50.958;3.124;2023-04-24T14:53:21;3.95;;;2.40;;
37655;SDS011;23498;50.958;3.124;2023-04-24T14:55:47;5.35;;;2.45;;
37655;SDS011;23498;50.958;3.124;2023-04-24T14:58:13;4.43;;;2.00;;
37655;SDS011;23498;50.958;3.124;2023-04-24T15:00:39;4.63;;;1.85;;
37655;SDS011;23498;50.958;3.124;2023-04-24T15:03:06;6.97;;;2.10;;
37655;SDS011;23498;50.958;3.124;2023-04-24T15:05:32;4.03;;;2.45;;
37655;SDS011;23498;50.958;3.124;2023-04-24T15:07:58;4.88;;;2.38;;
37655;SDS011;23498;50.958;3.124;2023-04-24T15:10:24;5.88;;;2.58;;
37655;SDS011;23498;50.958;3.124;2023-04-24T15:18:25;5.20;;;2.00;;
37655;SDS011;23498;50.958;3.124;2023-04-24T15:21:27;4.22;;;2.05;;
37655;SDS011;23498;50.958;3.124;2023-04-24T15:23:53;6.20;;;2.22;;
37655;SDS011;23498;50.958;3.124;2023-04-24T15:26:19;4.50;;;2.15;;
37655;SDS011;23498;50.958;3.124;2023-04-24T15:28:45;5.72;;;2.63;;
37655;SDS011;23498;50.958;3.124;2023-04-24T15:31:11;4.43;;;2.05;;
37655;SDS011;23498;50.958;3.124;2023-04-24T15:33:41;5.15;;;2.17;;
37655;SDS011;23498;50.958;3.124;2023-04-24T15:38:57;5.95;;;2.95;;
37655;SDS011;23498;50.958;3.124;2023-04-24T15:44:14;7.43;;;2.45;;
37655;SDS011;23498;50.958;3.124;2023-04-24T15:46:40;5.47;;;2.20;;
37655;SDS011;23498;50.958;3.124;2023-04-24T15:49:09;5.28;;;2.22;;
37655;SDS011;23498;50.958;3.124;2023-04-24T15:51:35;5.28;;;2.70;;
37655;SDS011;23498;50.958;3.124;2023-04-24T15:54:02;5.20;;;2.40;;
37655;SDS011;23498;50.958;3.124;2023-04-24T15:56:28;7.57;;;2.47;;
37655;SDS011;23498;50.958;3.124;2023-04-24T15:58:56;6.57;;;2.28;;
37655;SDS011;23498;50.958;3.124;2023-04-24T16:01:30;6.63;;;2.42;;
37655;SDS011;23498;50.958;3.124;2023-04-24T16:04:02;4.22;;;2.15;;
37655;SDS011;23498;50.958;3.124;2023-04-24T16:06:28;5.18;;;2.33;;
37655;SDS011;23498;50.958;3.124;2023-04-24T16:08:57;4.93;;;2.40;;
37655;SDS011;23498;50.958;3.124;2023-04-24T16:11:23;4.60;;;2.15;;
37655;SDS011;23498;50.958;3.124;2023-04-24T16:13:55;6.55;;;2.67;;
37655;SDS011;23498;50.958;3.124;2023-04-24T16:19:12;5.23;;;2.77;;
37655;SDS011;23498;50.958;3.124;2023-04-24T16:21:39;5.75;;;2.33;;
37655;SDS011;23498;50.958;3.124;2023-04-24T16:24:05;7.18;;;2.58;;
37655;SDS011;23498;50.958;3.124;2023-04-24T16:26:31;5.68;;;2.58;;
37655;SDS011;23498;50.958;3.124;2023-04-24T16:32:06;7.38;;;2.67;;
37655;SDS011;23498;50.958;3.124;2023-04-24T16:34:35;7.20;;;3.20;;
37655;SDS011;23498;50.958;3.124;2023-04-24T16:37:02;5.85;;;3.10;;
37655;SDS011;23498;50.958;3.124;2023-04-24T16:39:29;5.65;;;2.90;;
37655;SDS011;23498;50.958;3.124;2023-04-24T16:42:04;7.03;;;2.83;;
37655;SDS011;23498;50.958;3.124;2023-04-24T16:44:40;6.07;;;2.80;;
37655;SDS011;23498;50.958;3.124;2023-04-24T16:47:11;5.00;;;2.80;;
37655;SDS011;23498;50.958;3.124;2023-04-24T16:50:00;5.88;;;2.78;;
37655;SDS011;23498;50.958;3.124;2023-04-24T16:52:31;6.15;;;2.70;;
37655;SDS011;23498;50.958;3.124;2023-04-24T16:54:57;6.60;;;2.70;;
37655;SDS011;23498;50.958;3.124;2023-04-24T16:57:24;4.53;;;2.70;;
37655;SDS011;23498;50.958;3.124;2023-04-24T17:03:21;5.53;;;2.88;;
37655;SDS011;23498;50.958;3.124;2023-04-24T17:05:50;5.13;;;2.70;;
37655;SDS011;23498;50.958;3.124;2023-04-24T17:08:16;8.10;;;2.65;;
37655;SDS011;23498;50.958;3.124;2023-04-24T17:10:43;4.97;;;2.90;;
37655;SDS011;23498;50.958;3.124;2023-04-24T17:13:09;6.57;;;3.05;;
37655;SDS011;23498;50.958;3.124;2023-04-24T17:15:50;7.45;;;3.42;;
37655;SDS011;23498;50.958;3.124;2023-04-24T17:18:45;6.22;;;2.92;;
37655;SDS011;23498;50.958;3.124;2023-04-24T17:27:15;6.50;;;2.70;;
37655;SDS011;23498;50.958;3.124;2023-04-24T17:29:57;6.82;;;3.45;;
37655;SDS011;23498;50.958;3.124;2023-04-24T17:32:23;6.43;;;2.80;;
37655;SDS011;23498;50.958;3.124;2023-04-24T17:34:49;6.47;;;3.10;;
37655;SDS011;23498;50.958;3.124;2023-04-24T17:37:16;7.38;;;3.53;;
37655;SDS011;23498;50.958;3.124;2023-04-24T17:39:45;6.47;;;3.53;;
37655;SDS011;23498;50.958;3.124;2023-04-24T17:42:11;9.32;;;3.70;;
37655;SDS011;23498;50.958;3.124;2023-04-24T17:44:37;8.13;;;3.67;;
37655;SDS011;23498;50.958;3.124;2023-04-24T17:47:03;10.45;;;5.43;;
37655;SDS011;23498;50.958;3.124;2023-04-24T17:49:40;6.18;;;3.38;;
37655;SDS011;23498;50.958;3.124;2023-04-24T17:52:41;5.47;;;3.15;;
37655;SDS011;23498;50.958;3.124;2023-04-24T17:55:53;7.60;;;2.83;;
37655;SDS011;23498;50.958;3.124;2023-04-24T17:58:45;7.35;;;3.58;;
37655;SDS011;23498;50.958;3.124;2023-04-24T18:01:14;8.90;;;3.45;;
37655;SDS011;23498;50.958;3.124;2023-04-24T18:04:13;8.57;;;3.63;;
37655;SDS011;23498;50.958;3.124;2023-04-24T18:07:10;8.82;;;4.90;;
37655;SDS011;23498;50.958;3.124;2023-04-24T18:09:58;17.50;;;10.70;;
37655;SDS011;23498;50.958;3.124;2023-04-24T18:12:56;9.15;;;4.80;;
37655;SDS011;23498;50.958;3.124;2023-04-24T18:16:04;8.77;;;6.28;;
37655;SDS011;23498;50.958;3.124;2023-04-24T18:18:47;8.43;;;4.35;;
37655;SDS011;23498;50.958;3.124;2023-04-24T18:21:16;9.32;;;6.60;;
37655;SDS011;23498;50.958;3.124;2023-04-24T18:23:59;6.90;;;4.28;;
37655;SDS011;23498;50.958;3.124;2023-04-24T18:27:04;10.02;;;4.32;;
37655;SDS011;23498;50.958;3.124;2023-04-24T18:29:49;8.13;;;4.63;;
37655;SDS011;23498;50.958;3.124;2023-04-24T18:32:36;10.55;;;5.32;;
37655;SDS011;23498;50.958;3.124;2023-04-24T18:35:23;10.30;;;5.10;;
37655;SDS011;23498;50.958;3.124;2023-04-24T18:38:18;9.48;;;5.25;;
37655;SDS011;23498;50.958;3.124;2023-04-24T18:40:48;10.07;;;5.65;;
37655;SDS011;23498;50.958;3.124;2023-04-24T18:43:29;8.57;;;5.00;;
37655;SDS011;23498;50.958;3.124;2023-04-24T18:45:56;10.45;;;5.30;;
37655;SDS011;23498;50.958;3.124;2023-04-24T18:48:23;11.93;;;5.38;;
37655;SDS011;23498;50.958;3.124;2023-04-24T18:51:09;11.07;;;5.38;;
37655;SDS011;23498;50.958;3.124;2023-04-24T18:53:38;9.68;;;5.57;;
37655;SDS011;23498;50.958;3.124;2023-04-24T18:56:46;11.85;;;6.18;;
37655;SDS011;23498;50.958;3.124;2023-04-24T21:56:42;18.70;;;8.85;;
37655;SDS011;23498;50.958;3.124;2023-04-24T21:59:57;21.77;;;11.25;;
37655;SDS011;23498;50.958;3.124;2023-04-24T22:02:51;15.98;;;7.97;;
37655;SDS011;23498;50.958;3.124;2023-04-24T22:05:53;16.25;;;8.40;;
37655;SDS011;23498;50.958;3.124;2023-04-24T22:08:25;19.58;;;8.35;;
37655;SDS011;23498;50.958;3.124;2023-04-24T22:10:51;18.73;;;8.88;;
37655;SDS011;23498;50.958;3.124;2023-04-24T22:13:39;15.45;;;8.07;;
37655;SDS011;23498;50.958;3.124;2023-04-24T22:16:05;19.20;;;9.13;;
37655;SDS011;23498;50.958;3.124;2023-04-24T22:18:31;18.80;;;9.27;;
37655;SDS011;23498;50.958;3.124;2023-04-24T22:20:57;17.45;;;9.23;;
37655;SDS011;23498;50.958;3.124;2023-04-24T22:23:25;19.30;;;9.13;;
37655;SDS011;23498;50.958;3.124;2023-04-24T22:25:51;21.95;;;9.50;;
37655;SDS011;23498;50.958;3.124;2023-04-24T22:28:17;16.90;;;9.05;;
37655;SDS011;23498;50.958;3.124;2023-04-24T22:30:44;16.77;;;9.35;;
37655;SDS011;23498;50.958;3.124;2023-04-24T22:33:11;17.73;;;9.30;;
37655;SDS011;23498;50.958;3.124;2023-04-24T22:35:40;21.30;;;9.60;;
37655;SDS011;23498;50.958;3.124;2023-04-24T22:38:10;19.67;;;9.93;;
37655;SDS011;23498;50.958;3.124;2023-04-24T22:40:36;18.02;;;9.27;;
37655;SDS011;23498;50.958;3.124;2023-04-24T22:43:02;23.02;;;9.60;;
37655;SDS011;23498;50.958;3.124;2023-04-24T22:45:34;15.55;;;8.95;;
37655;SDS011;23498;50.958;3.124;2023-04-24T22:48:06;19.65;;;9.18;;
37655;SDS011;23498;50.958;3.124;2023-04-24T22:50:56;16.27;;;9.30;;
37655;SDS011;23498;50.958;3.124;2023-04-24T22:53:31;18.52;;;8.93;;
37655;SDS011;23498;50.958;3.124;2023-04-24T22:58:49;18.88;;;8.95;;
37655;SDS011;23498;50.958;3.124;2023-04-24T23:01:44;17.75;;;8.82;;
37655;SDS011;23498;50.958;3.124;2023-04-24T23:04:20;16.65;;;8.40;;
37655;SDS011;23498;50.958;3.124;2023-04-24T23:06:53;21.02;;;9.35;;
37655;SDS011;23498;50.958;3.124;2023-04-24T23:09:42;15.27;;;8.40;;
37655;SDS011;23498;50.958;3.124;2023-04-24T23:12:37;19.85;;;9.65;;
37655;SDS011;23498;50.958;3.124;2023-04-24T23:15:23;16.13;;;9.30;;
37655;SDS011;23498;50.958;3.124;2023-04-24T23:18:13;20.05;;;9.60;;
37655;SDS011;23498;50.958;3.124;2023-04-24T23:20:41;18.00;;;9.15;;